createdAt,value
2022-08-11T00:01:46.268Z,3.65
2022-08-11T00:04:15.440Z,3.60
2022-08-11T00:06:45.038Z,3.38
2022-08-11T00:09:16.581Z,3.95
2022-08-11T00:11:50.994Z,3.42
2022-08-11T00:14:21.207Z,3.45
2022-08-11T00:17:06.187Z,3.20
2022-08-11T00:20:11.940Z,3.88
2022-08-11T00:22:32.485Z,3.33
2022-08-11T00:25:02.684Z,3.40
2022-08-11T00:27:37.550Z,4.20
2022-08-11T00:30:06.488Z,3.70
2022-08-11T00:32:34.673Z,2.95
2022-08-11T00:35:56.159Z,3.78
2022-08-11T00:37:55.001Z,3.53
2022-08-11T00:40:42.544Z,3.70
2022-08-11T00:43:38.779Z,3.65
2022-08-11T00:46:15.384Z,3.90
2022-08-11T00:49:24.355Z,3.70
2022-08-11T00:52:05.825Z,3.60
2022-08-11T00:54:45.208Z,3.70
2022-08-11T00:57:39.863Z,4.07
2022-08-11T01:00:35.357Z,3.72
2022-08-11T01:03:11.079Z,3.75
2022-08-11T01:05:59.582Z,3.85
2022-08-11T01:08:29.915Z,4.00
2022-08-11T01:10:57.217Z,3.83
2022-08-11T01:13:53.562Z,4.40
2022-08-11T01:16:36.084Z,4.18
2022-08-11T01:19:28.372Z,4.00
2022-08-11T01:22:07.716Z,4.40
2022-08-11T01:25:05.999Z,3.90
2022-08-11T01:28:06.998Z,4.47
2022-08-11T01:30:56.033Z,4.10
2022-08-11T01:33:35.195Z,4.03
2022-08-11T01:36:24.167Z,3.72
2022-08-11T01:39:29.297Z,4.70
2022-08-11T01:42:49.557Z,3.95
2022-08-11T01:45:41.891Z,4.18
2022-08-11T01:48:21.323Z,4.15
2022-08-11T01:51:17.103Z,3.92
2022-08-11T01:54:03.677Z,3.72
2022-08-11T01:56:39.199Z,4.40
2022-08-11T01:59:49.421Z,4.72
2022-08-11T02:02:46.592Z,4.22
2022-08-11T02:05:20.151Z,4.03
2022-08-11T02:07:58.973Z,4.25
2022-08-11T02:11:09.674Z,4.20
2022-08-11T02:14:01.515Z,4.43
2022-08-11T02:16:35.468Z,3.88
2022-08-11T02:19:36.460Z,4.88
2022-08-11T02:22:35.419Z,4.50
2022-08-11T02:25:19.089Z,4.43
2022-08-11T02:28:04.337Z,4.82
2022-08-11T02:30:38.932Z,4.50
2022-08-11T02:33:24.912Z,4.22
2022-08-11T02:36:09.977Z,4.38
2022-08-11T02:39:04.034Z,4.70
2022-08-11T02:42:08.796Z,4.57
2022-08-11T02:45:14.160Z,4.30
2022-08-11T02:48:13.231Z,4.00
2022-08-11T02:51:03.968Z,4.30
2022-08-11T02:53:40.212Z,4.32
2022-08-11T02:56:09.717Z,4.18
2022-08-11T02:59:23.772Z,4.88
2022-08-11T03:02:24.849Z,4.68
2022-08-11T03:04:57.839Z,4.63
2022-08-11T03:07:48.020Z,4.30
2022-08-11T03:10:17.526Z,4.20
2022-08-11T03:13:10.753Z,4.85
2022-08-11T03:16:45.880Z,4.82
2022-08-11T03:19:18.506Z,4.85
2022-08-11T03:22:03.221Z,4.47
2022-08-11T03:24:56.340Z,4.72
2022-08-11T03:27:41.147Z,4.63
2022-08-11T03:30:44.634Z,4.32
2022-08-11T03:33:44.180Z,5.35
2022-08-11T03:36:16.284Z,5.18
2022-08-11T03:39:22.943Z,4.70
2022-08-11T03:42:06.710Z,4.90
2022-08-11T03:44:56.020Z,4.80
2022-08-11T03:47:39.885Z,4.75
2022-08-11T03:50:31.343Z,4.82
2022-08-11T03:53:36.541Z,4.75
2022-08-11T03:56:40.484Z,4.70
2022-08-11T03:59:25.809Z,4.85
2022-08-11T04:02:34.464Z,5.00
2022-08-11T04:05:39.977Z,5.00
2022-08-11T04:08:25.920Z,5.15
2022-08-11T04:11:12.871Z,4.63
2022-08-11T04:14:42.387Z,5.20
2022-08-11T04:17:23.714Z,5.05
2022-08-11T04:20:29.367Z,5.07
2022-08-11T04:23:08.257Z,4.82
2022-08-11T04:26:15.958Z,4.63
2022-08-11T04:29:15.197Z,4.60
2022-08-11T04:32:02.136Z,5.03
2022-08-11T04:35:07.384Z,4.85
2022-08-11T04:37:55.412Z,5.10
2022-08-11T04:40:56.420Z,5.53
2022-08-11T04:44:05.631Z,5.15
2022-08-11T04:47:34.449Z,5.10
2022-08-11T04:51:08.891Z,5.07
2022-08-11T04:54:28.250Z,5.20
2022-08-11T04:57:23.300Z,5.65
2022-08-11T05:00:26.376Z,5.28
2022-08-11T05:03:14.934Z,5.57
2022-08-11T05:06:06.972Z,5.40
2022-08-11T05:08:52.790Z,5.78
2022-08-11T05:11:28.626Z,5.43
2022-08-11T05:14:29.445Z,5.05
2022-08-11T05:17:19.227Z,5.20
2022-08-11T05:20:06.788Z,5.13
2022-08-11T05:22:53.788Z,5.68
2022-08-11T05:26:43.644Z,6.45
2022-08-11T05:29:21.272Z,5.72
2022-08-11T05:32:18.341Z,5.57
2022-08-11T05:38:27.494Z,5.88
2022-08-11T05:41:15.440Z,6.10
2022-08-11T05:44:19.911Z,6.30
2022-08-11T05:47:08.571Z,6.10
2022-08-11T05:49:56.656Z,5.70
2022-08-11T05:52:55.418Z,5.53
2022-08-11T05:55:58.358Z,5.57
2022-08-11T05:58:42.663Z,5.18
2022-08-11T06:01:12.416Z,4.90
2022-08-11T06:04:05.068Z,4.75
2022-08-11T06:06:45.179Z,4.35
2022-08-11T06:09:14.583Z,4.00
2022-08-11T06:11:44.966Z,4.18
2022-08-11T06:14:13.195Z,3.70
2022-08-11T06:16:42.921Z,3.85
2022-08-11T06:19:10.966Z,3.50
2022-08-11T06:21:38.879Z,3.60
2022-08-11T06:24:12.706Z,3.45
2022-08-11T06:27:08.706Z,3.40
2022-08-11T06:29:37.530Z,3.08
2022-08-11T06:32:06.076Z,3.03
2022-08-11T06:34:41.371Z,2.80
2022-08-11T06:37:24.187Z,2.67
2022-08-11T06:40:13.280Z,3.03
2022-08-11T06:43:02.291Z,2.95
2022-08-11T06:45:35.338Z,2.72
2022-08-11T06:48:03.273Z,2.28
2022-08-11T06:50:50.054Z,2.55
2022-08-11T06:53:19.979Z,2.10
2022-08-11T06:56:07.535Z,2.35
2022-08-11T06:58:59.018Z,2.20
2022-08-11T07:01:31.643Z,2.15
2022-08-11T07:04:06.709Z,2.17
2022-08-11T07:07:16.530Z,2.20
2022-08-11T07:10:50.271Z,1.67
2022-08-11T07:13:45.405Z,1.98
2022-08-11T07:16:18.657Z,2.00
2022-08-11T07:19:20.241Z,1.73
2022-08-11T07:22:07.627Z,2.17
2022-08-11T07:25:03.601Z,2.47
2022-08-11T07:27:59.987Z,1.65
2022-08-11T07:30:27.541Z,1.83
2022-08-11T07:32:57.583Z,2.40
2022-08-11T07:35:36.742Z,1.88
2022-08-11T07:38:09.456Z,1.90
2022-08-11T07:40:37.590Z,1.70
2022-08-11T07:43:07.173Z,2.22
2022-08-11T07:45:53.446Z,1.80
2022-08-11T07:48:39.463Z,1.92
2022-08-11T07:51:25.582Z,1.60
2022-08-11T07:53:58.459Z,1.70
2022-08-11T07:56:55.348Z,2.00
2022-08-11T07:59:57.572Z,1.73
2022-08-11T08:02:49.906Z,1.90
2022-08-11T08:05:37.727Z,1.80
2022-08-11T08:08:24.449Z,1.70
2022-08-11T08:11:11.331Z,1.65
2022-08-11T08:13:57.272Z,1.63
2022-08-11T08:16:43.321Z,1.92
2022-08-11T08:19:16.312Z,1.58
2022-08-11T08:21:45.370Z,1.48
2022-08-11T08:26:59.499Z,1.70
2022-08-11T08:29:48.119Z,1.63
2022-08-11T08:32:17.481Z,1.92
2022-08-11T08:34:46.064Z,1.73
2022-08-11T08:37:16.199Z,1.55
2022-08-11T08:40:02.442Z,1.70
2022-08-11T08:42:32.765Z,1.35
2022-08-11T08:45:08.439Z,1.40
2022-08-11T08:47:43.508Z,1.38
2022-08-11T08:50:27.557Z,1.58
2022-08-11T08:53:05.935Z,1.40
2022-08-11T08:55:33.948Z,1.40
2022-08-11T08:58:01.933Z,1.30
2022-08-11T09:00:41.266Z,1.50
2022-08-11T09:03:38.116Z,1.20
2022-08-11T09:05:56.510Z,1.20
2022-08-11T09:08:24.976Z,1.10
2022-08-11T09:11:14.101Z,1.20
2022-08-11T09:13:44.657Z,1.08
2022-08-11T09:16:12.915Z,1.30
2022-08-11T09:18:44.838Z,1.20
2022-08-11T09:21:39.252Z,1.48
2022-08-11T09:24:26.016Z,1.55
2022-08-11T09:26:59.561Z,1.20
2022-08-11T09:29:30.861Z,1.35
2022-08-11T09:31:58.994Z,1.20
2022-08-11T09:34:26.960Z,1.30
2022-08-11T09:37:13.220Z,1.40
2022-08-11T09:40:00.570Z,1.50
2022-08-11T09:42:47.949Z,1.40
2022-08-11T09:45:16.662Z,1.10
2022-08-11T09:47:44.142Z,1.23
2022-08-11T09:50:12.957Z,1.13
2022-08-11T09:55:28.430Z,1.27
2022-08-11T09:58:41.537Z,1.02
2022-08-11T10:01:02.337Z,1.20
2022-08-11T10:03:31.564Z,1.30
2022-08-11T10:09:05.405Z,1.20
2022-08-11T10:11:35.190Z,1.27
2022-08-11T10:14:34.466Z,1.10
2022-08-11T10:17:06.622Z,1.42
2022-08-11T10:19:37.429Z,1.00
2022-08-11T10:22:26.986Z,1.30
2022-08-11T10:25:19.687Z,1.10
2022-08-11T10:28:32.884Z,1.17
2022-08-11T10:30:57.268Z,1.20
2022-08-11T10:33:49.186Z,1.20
2022-08-11T10:36:31.952Z,1.40
2022-08-11T10:39:00.793Z,1.35
2022-08-11T10:42:03.389Z,1.27
2022-08-11T10:44:39.686Z,1.10
2022-08-11T10:47:26.554Z,0.90
2022-08-11T10:50:13.066Z,1.20
2022-08-11T10:52:59.912Z,1.13
2022-08-11T10:55:46.344Z,1.00
2022-08-11T10:58:33.308Z,0.90
2022-08-11T11:01:01.513Z,1.10
2022-08-11T11:03:31.472Z,1.17
2022-08-11T11:06:27.923Z,1.10
2022-08-11T11:09:15.012Z,1.15
2022-08-11T11:12:32.114Z,0.80
2022-08-11T11:15:21.229Z,1.10
2022-08-11T11:18:04.785Z,1.23
2022-08-11T11:20:38.629Z,1.20
2022-08-11T11:23:14.134Z,1.15
2022-08-11T11:26:10.368Z,1.08
2022-08-11T11:28:52.178Z,1.00
2022-08-11T11:31:33.935Z,1.10
2022-08-11T11:34:37.929Z,1.05
2022-08-11T11:37:22.666Z,0.90
2022-08-11T11:39:50.386Z,1.10
2022-08-11T11:42:18.684Z,1.13
2022-08-11T11:44:47.302Z,1.27
2022-08-11T11:47:15.873Z,0.93
2022-08-11T11:49:44.335Z,0.80
2022-08-11T11:52:17.454Z,0.95
2022-08-11T11:54:45.788Z,0.80
2022-08-11T11:57:35.159Z,1.05
2022-08-11T12:00:23.332Z,1.00
2022-08-11T12:03:03.089Z,1.10
2022-08-11T12:05:33.852Z,0.90
2022-08-11T12:08:16.447Z,1.00
2022-08-11T12:10:47.984Z,1.00
2022-08-11T12:13:36.315Z,0.90
2022-08-11T12:16:34.259Z,1.03
2022-08-11T12:19:00.380Z,0.95
2022-08-11T12:21:29.343Z,0.90
2022-08-11T12:24:17.154Z,0.90
2022-08-11T12:27:15.389Z,1.10
2022-08-11T12:29:41.399Z,1.08
2022-08-11T12:32:11.489Z,0.88
2022-08-11T12:34:38.984Z,0.90
2022-08-11T12:37:13.166Z,1.10
2022-08-11T12:40:43.076Z,0.88
2022-08-11T12:43:24.324Z,0.85
2022-08-11T12:46:08.885Z,1.08
2022-08-11T12:49:02.570Z,1.08
2022-08-11T12:52:11.621Z,0.90
2022-08-11T12:55:13.702Z,0.85
2022-08-11T12:58:06.002Z,0.85
2022-08-11T13:00:52.556Z,1.02
2022-08-11T13:03:39.324Z,0.90
2022-08-11T13:06:07.654Z,0.93
2022-08-11T13:08:38.978Z,1.00
2022-08-11T13:11:56.446Z,0.80
2022-08-11T13:14:15.269Z,0.80
2022-08-11T13:17:03.432Z,0.88
2022-08-11T13:19:31.420Z,1.20
2022-08-11T13:21:59.046Z,1.02
2022-08-11T13:24:26.374Z,1.10
2022-08-11T13:26:53.732Z,0.90
2022-08-11T13:29:24.435Z,0.93
2022-08-11T13:31:54.066Z,0.75
2022-08-11T13:34:23.224Z,0.90
2022-08-11T13:39:24.599Z,0.90
2022-08-11T13:41:53.749Z,0.82
2022-08-11T13:44:25.642Z,0.85
2022-08-11T13:47:04.339Z,0.90
2022-08-11T13:49:35.077Z,0.85
2022-08-11T13:52:03.075Z,1.40
2022-08-11T13:54:36.996Z,0.88
2022-08-11T13:57:09.127Z,1.02
2022-08-11T13:59:44.005Z,0.70
2022-08-11T14:02:29.251Z,0.90
2022-08-11T14:05:09.652Z,0.77
2022-08-11T14:10:08.224Z,0.88
2022-08-11T14:12:55.819Z,1.00
2022-08-11T14:15:27.985Z,0.90
2022-08-11T14:18:01.830Z,0.82
2022-08-11T14:20:53.793Z,0.70
2022-08-11T14:23:27.620Z,0.90
2022-08-11T14:26:14.840Z,0.90
2022-08-11T14:28:45.451Z,1.00
2022-08-11T14:31:15.860Z,0.88
2022-08-11T14:33:59.833Z,1.40
2022-08-11T14:36:36.219Z,1.05
2022-08-11T14:39:07.394Z,0.80
2022-08-11T14:42:11.324Z,0.85
2022-08-11T14:45:03.423Z,0.80
2022-08-11T14:47:36.922Z,1.00
2022-08-11T14:50:11.341Z,0.80
2022-08-11T14:52:51.009Z,1.08
2022-08-11T14:55:38.813Z,1.13
2022-08-11T14:58:08.788Z,0.90
2022-08-11T15:00:36.655Z,1.02
2022-08-11T15:03:11.837Z,1.00
2022-08-11T15:05:57.705Z,0.90
2022-08-11T15:08:47.600Z,0.90
2022-08-11T15:11:35.836Z,0.80
2022-08-11T15:14:04.972Z,1.00
2022-08-11T15:16:56.148Z,0.95
2022-08-11T15:19:25.630Z,1.20
2022-08-11T15:22:10.988Z,1.02
2022-08-11T15:24:38.524Z,0.90
2022-08-11T15:27:30.199Z,0.90
2022-08-11T15:30:29.941Z,0.90
2022-08-11T15:33:23.214Z,1.00
2022-08-11T15:36:10.169Z,1.00
2022-08-11T15:38:44.866Z,1.02
2022-08-11T15:41:36.262Z,1.00
2022-08-11T15:44:44.533Z,0.93
2022-08-11T15:47:14.494Z,0.95
2022-08-11T15:50:12.078Z,0.90
2022-08-11T15:52:38.083Z,1.17
2022-08-11T15:55:08.867Z,1.10
2022-08-11T15:57:55.402Z,1.02
2022-08-11T16:00:41.607Z,1.10
2022-08-11T16:04:05.544Z,0.95
2022-08-11T16:06:17.228Z,0.90
2022-08-11T16:08:45.049Z,1.20
2022-08-11T16:11:13.541Z,1.13
2022-08-11T16:13:40.869Z,0.90
2022-08-11T16:16:15.768Z,1.38
2022-08-11T16:18:51.830Z,0.95
2022-08-11T16:21:34.595Z,1.25
2022-08-11T16:25:58.355Z,0.90
2022-08-11T16:27:07.693Z,0.90
2022-08-11T16:29:43.841Z,1.17
2022-08-11T16:32:20.681Z,1.10
2022-08-11T16:35:16.121Z,1.10
2022-08-11T16:38:03.519Z,1.00
2022-08-11T16:40:32.499Z,1.20
2022-08-11T16:43:19.905Z,1.00
2022-08-11T16:46:06.833Z,1.20
2022-08-11T16:48:41.516Z,1.02
2022-08-11T16:51:11.563Z,1.15
2022-08-11T16:53:54.800Z,1.10
2022-08-11T16:56:45.445Z,1.05
2022-08-11T16:59:43.560Z,1.02
2022-08-11T17:02:40.499Z,1.13
2022-08-11T17:05:30.920Z,1.00
2022-08-11T17:08:20.967Z,1.13
2022-08-11T17:11:15.111Z,0.93
2022-08-11T17:13:50.360Z,1.20
2022-08-11T17:16:24.242Z,0.98
2022-08-11T17:19:10.868Z,1.20
2022-08-11T17:21:59.820Z,1.23
2022-08-11T17:24:28.204Z,0.90
2022-08-11T17:26:59.839Z,1.08
2022-08-11T17:29:54.789Z,1.08
2022-08-11T17:32:56.253Z,1.13
2022-08-11T17:35:31.404Z,1.30
2022-08-11T17:38:04.317Z,1.48
2022-08-11T17:40:37.353Z,1.25
2022-08-11T17:43:24.882Z,1.10
2022-08-11T17:46:31.038Z,1.40
2022-08-11T17:48:58.282Z,1.10
2022-08-11T17:51:44.400Z,1.30
2022-08-11T17:54:30.912Z,1.20
2022-08-11T17:57:20.290Z,0.95
2022-08-11T17:59:53.864Z,1.00
2022-08-11T18:02:45.152Z,1.15
2022-08-11T18:05:13.903Z,1.27
2022-08-11T18:08:03.901Z,1.17
2022-08-11T18:10:52.039Z,1.15
2022-08-11T18:13:41.340Z,1.10
2022-08-11T18:16:28.322Z,1.20
2022-08-11T18:19:14.165Z,1.25
2022-08-11T18:22:14.557Z,1.10
2022-08-11T18:25:10.329Z,1.50
2022-08-11T18:27:59.258Z,1.30
2022-08-11T18:30:46.929Z,1.20
2022-08-11T18:33:56.663Z,1.13
2022-08-11T18:36:42.573Z,1.23
2022-08-11T18:39:30.882Z,1.20
2022-08-11T18:42:29.562Z,0.95
2022-08-11T18:45:20.290Z,1.10
2022-08-11T18:48:09.353Z,1.23
2022-08-11T18:51:29.814Z,1.00
2022-08-11T18:54:09.550Z,0.95
2022-08-11T18:56:54.895Z,1.27
2022-08-11T18:59:46.215Z,1.50
2022-08-11T19:02:48.890Z,1.40
2022-08-11T19:06:06.002Z,1.20
2022-08-11T19:08:53.642Z,1.30
2022-08-11T19:11:42.511Z,1.38
2022-08-11T19:14:31.286Z,1.27
2022-08-11T19:17:44.909Z,1.30
2022-08-11T19:20:30.139Z,1.15
2022-08-11T19:23:17.460Z,1.17
2022-08-11T19:26:04.520Z,1.35
2022-08-11T19:28:52.371Z,1.27
2022-08-11T19:31:42.505Z,1.50
2022-08-11T19:34:30.699Z,1.55
2022-08-11T19:37:18.618Z,1.88
2022-08-11T19:40:07.989Z,1.40
2022-08-11T19:42:54.689Z,1.15
2022-08-11T19:45:41.552Z,1.38
2022-08-11T19:48:32.679Z,1.10
2022-08-11T19:51:19.698Z,1.50
2022-08-11T19:54:07.391Z,1.23
2022-08-11T19:56:55.229Z,1.25
2022-08-11T19:59:42.032Z,1.40
2022-08-11T20:02:29.102Z,1.25
2022-08-11T20:05:14.532Z,1.50
2022-08-11T20:08:01.702Z,1.30
2022-08-11T20:10:48.985Z,1.90
2022-08-11T20:13:35.378Z,1.10
2022-08-11T20:16:23.182Z,1.25
2022-08-11T20:19:11.663Z,1.33
2022-08-11T20:22:00.974Z,1.50
2022-08-11T20:24:51.512Z,1.40
2022-08-11T20:27:38.197Z,1.20
2022-08-11T20:30:24.571Z,1.48
2022-08-11T20:33:11.700Z,1.50
2022-08-11T20:35:58.750Z,1.50
2022-08-11T20:38:48.453Z,1.65
2022-08-11T20:41:58.203Z,1.80
2022-08-11T20:44:42.877Z,1.45
2022-08-11T20:47:29.726Z,1.73
2022-08-11T20:50:19.433Z,1.40
2022-08-11T20:53:07.246Z,1.77
2022-08-11T20:55:53.939Z,1.90
2022-08-11T20:59:11.816Z,1.75
2022-08-11T21:01:47.420Z,1.40
2022-08-11T21:04:37.960Z,1.55
2022-08-11T21:07:41.440Z,1.52
2022-08-11T21:10:30.452Z,1.48
2022-08-11T21:13:26.480Z,1.90
2022-08-11T21:16:25.149Z,1.60
2022-08-11T21:19:16.092Z,1.63
2022-08-11T21:22:03.810Z,1.70
2022-08-11T21:24:51.995Z,1.50
2022-08-11T21:27:39.821Z,1.80
2022-08-11T21:30:25.875Z,1.40
2022-08-11T21:33:12.198Z,1.73
2022-08-11T21:35:58.620Z,1.75
2022-08-11T21:38:46.098Z,1.63
2022-08-11T21:41:32.433Z,1.85
2022-08-11T21:44:18.965Z,1.65
2022-08-11T21:47:06.040Z,1.50
2022-08-11T21:49:52.234Z,1.80
2022-08-11T21:52:38.355Z,1.90
2022-08-11T21:55:24.191Z,1.85
2022-08-11T21:58:10.074Z,1.75
2022-08-11T22:00:56.090Z,1.60
2022-08-11T22:03:49.858Z,2.00
2022-08-11T22:06:36.492Z,1.90
2022-08-11T22:09:22.258Z,1.70
2022-08-11T22:12:33.432Z,1.73
2022-08-11T22:15:14.710Z,1.63
2022-08-11T22:18:00.134Z,2.22
2022-08-11T22:20:46.450Z,1.70
2022-08-11T22:23:36.007Z,2.35
2022-08-11T22:29:08.618Z,1.60
2022-08-11T22:31:56.920Z,1.65
2022-08-11T22:34:53.457Z,1.88
2022-08-11T22:37:40.971Z,1.77
2022-08-11T22:40:28.804Z,1.80
2022-08-11T22:43:14.643Z,1.92
2022-08-11T22:46:00.404Z,1.52
2022-08-11T22:48:48.834Z,1.90
2022-08-11T22:51:37.083Z,1.73
2022-08-11T22:54:23.622Z,1.95
2022-08-11T22:57:10.159Z,1.95
2022-08-11T22:59:56.372Z,1.67
2022-08-11T23:03:55.229Z,2.25
2022-08-11T23:06:41.241Z,1.80
2022-08-11T23:09:27.878Z,1.98
2022-08-11T23:12:13.908Z,2.20
2022-08-11T23:15:00.279Z,1.90
2022-08-11T23:17:46.996Z,2.08
2022-08-11T23:20:36.988Z,2.03
2022-08-11T23:23:33.287Z,1.90
2022-08-11T23:26:20.208Z,1.90
2022-08-11T23:29:06.321Z,1.80
2022-08-11T23:31:54.341Z,1.90
2022-08-11T23:35:37.253Z,1.95
2022-08-11T23:37:54.251Z,1.85
2022-08-11T23:40:39.643Z,1.65
2022-08-11T23:43:26.473Z,1.50
2022-08-11T23:46:11.789Z,2.20
2022-08-11T23:48:58.915Z,1.80
2022-08-11T23:51:46.602Z,1.92
2022-08-11T23:54:37.285Z,1.75
2022-08-11T23:57:24.140Z,1.80
